Toronto, Canada
Current Conditions -  °F | °C
As of 3:00 AM on Friday 31 Oct 2014 (Local Time) from CYYZ Reporting Station
Rain Showers Rain Showers  
Wind Chill: 43°   Ceiling: 5000
Heat Index: 43°   Visibility: 12mi
Dew Point: 37°   Wind: 3mph
Humidity: 81%   Direction: 260°W
Pressure: 29.98"   Gusts: NA
Location:  43.65°N, 79.39°W
Report Text: CYYZ 310700Z 26003KT 12SM -SHRA FEW030 BKN050 OVC083 06/03 A2998 RMK SC2SC3AC3 SLP157
Loading
Personal Weather Stations






























Interactive Weather Map
Tropical Storm Tracking
New forecast layout! Learn more

10-Day Weather Forecast

Advertisements
Track Severe Weather on mobile